createdAt,value
2022-11-30T00:00:10.212Z,16
2022-11-30T00:01:10.214Z,16
2022-11-30T00:02:10.190Z,16
2022-11-30T00:03:10.183Z,16
2022-11-30T00:04:10.172Z,16
2022-11-30T00:05:10.156Z,16
2022-11-30T00:06:10.149Z,16
2022-11-30T00:07:10.134Z,16
2022-11-30T00:08:10.126Z,16
2022-11-30T00:09:10.118Z,16
2022-11-30T00:10:10.104Z,16
2022-11-30T00:11:10.093Z,16
2022-11-30T00:12:10.082Z,16
2022-11-30T00:13:10.075Z,16
2022-11-30T00:14:10.067Z,16
2022-11-30T00:15:10.053Z,16
2022-11-30T00:16:10.040Z,16
2022-11-30T00:17:10.031Z,16
2022-11-30T00:18:10.024Z,16
2022-11-30T00:19:10.008Z,16
2022-11-30T00:20:10.000Z,16
2022-11-30T00:21:09.989Z,16
2022-11-30T00:22:09.975Z,16
2022-11-30T00:23:09.969Z,16
2022-11-30T00:24:09.956Z,16
2022-11-30T00:25:09.945Z,16
2022-11-30T00:26:09.953Z,16
2022-11-30T00:27:09.924Z,16
2022-11-30T00:28:09.916Z,16
2022-11-30T00:29:09.904Z,16
2022-11-30T00:30:09.895Z,16
2022-11-30T00:31:09.884Z,16
2022-11-30T00:32:09.870Z,16
2022-11-30T00:33:09.861Z,16
2022-11-30T00:34:09.856Z,16
2022-11-30T00:35:09.843Z,16
2022-11-30T00:36:09.828Z,16
2022-11-30T00:37:09.820Z,16
2022-11-30T00:38:09.816Z,16
2022-11-30T00:39:09.803Z,16
2022-11-30T00:40:09.785Z,16
2022-11-30T00:41:09.778Z,16
2022-11-30T00:42:09.779Z,16
2022-11-30T00:43:09.759Z,16
2022-11-30T00:44:09.744Z,16
2022-11-30T00:45:09.736Z,16
2022-11-30T00:46:09.721Z,16
2022-11-30T00:47:09.714Z,16
2022-11-30T00:48:09.703Z,16
2022-11-30T00:49:09.693Z,16
2022-11-30T00:50:09.683Z,16
2022-11-30T00:51:09.676Z,16
2022-11-30T00:52:09.666Z,16
2022-11-30T00:53:09.653Z,16
2022-11-30T00:54:09.637Z,16
2022-11-30T00:55:09.634Z,16
2022-11-30T00:56:09.619Z,16
2022-11-30T00:57:09.609Z,16
2022-11-30T00:58:09.602Z,16
2022-11-30T00:59:09.586Z,16
2022-11-30T01:00:09.577Z,16
2022-11-30T01:01:09.577Z,16
2022-11-30T01:02:09.553Z,16
2022-11-30T01:03:09.544Z,16
2022-11-30T01:04:09.551Z,16
2022-11-30T01:05:09.521Z,16
2022-11-30T01:06:09.510Z,16
2022-11-30T01:07:09.508Z,16
2022-11-30T01:08:09.520Z,16
2022-11-30T01:09:09.485Z,16
2022-11-30T01:10:09.476Z,16
2022-11-30T01:11:09.475Z,16
2022-11-30T01:12:09.448Z,16
2022-11-30T01:13:09.438Z,16
2022-11-30T01:14:09.430Z,16
2022-11-30T01:15:09.416Z,16
2022-11-30T01:16:09.404Z,16
2022-11-30T01:17:09.396Z,16
2022-11-30T01:18:09.386Z,16
2022-11-30T01:19:09.376Z,16
2022-11-30T01:20:09.367Z,16
2022-11-30T01:21:09.359Z,16
2022-11-30T01:22:09.345Z,16
2022-11-30T01:23:09.334Z,16
2022-11-30T01:24:09.323Z,16
2022-11-30T01:25:09.313Z,16
2022-11-30T01:26:09.301Z,16
2022-11-30T01:27:09.293Z,16
2022-11-30T01:28:09.283Z,16
2022-11-30T01:29:09.287Z,16
2022-11-30T01:30:09.265Z,16
2022-11-30T01:31:09.251Z,16
2022-11-30T01:32:09.238Z,16
2022-11-30T01:33:09.229Z,16
2022-11-30T01:34:09.220Z,16
2022-11-30T01:35:09.204Z,16
2022-11-30T01:36:09.202Z,16
2022-11-30T01:37:09.189Z,16
2022-11-30T01:38:09.171Z,16
2022-11-30T01:39:09.165Z,16
2022-11-30T01:40:09.159Z,16
2022-11-30T01:41:09.145Z,20
2022-11-30T01:42:09.148Z,24
2022-11-30T01:43:09.128Z,16
2022-11-30T01:44:09.123Z,16
2022-11-30T01:45:09.100Z,16
2022-11-30T01:46:09.094Z,16
2022-11-30T01:47:09.076Z,16
2022-11-30T01:48:09.077Z,24
2022-11-30T01:49:09.056Z,16
2022-11-30T01:50:09.054Z,16
2022-11-30T01:51:09.040Z,16
2022-11-30T01:52:09.025Z,16
2022-11-30T01:53:09.017Z,16
2022-11-30T01:54:09.007Z,16
2022-11-30T01:55:08.995Z,16
2022-11-30T01:56:08.982Z,16
2022-11-30T01:57:08.979Z,16
2022-11-30T01:58:08.963Z,16
2022-11-30T01:59:08.954Z,16
2022-11-30T02:00:08.961Z,16
2022-11-30T02:01:08.950Z,16
2022-11-30T02:02:08.921Z,16
2022-11-30T02:03:08.910Z,16
2022-11-30T02:04:08.896Z,16
2022-11-30T02:05:08.886Z,16
2022-11-30T02:06:08.879Z,16
2022-11-30T02:07:08.869Z,16
2022-11-30T02:08:08.855Z,16
2022-11-30T02:09:08.843Z,16
2022-11-30T02:10:08.833Z,16
2022-11-30T02:11:08.826Z,16
2022-11-30T02:12:08.816Z,16
2022-11-30T02:13:08.803Z,16
2022-11-30T02:14:08.795Z,16
2022-11-30T02:15:08.779Z,16
2022-11-30T02:16:08.770Z,16
2022-11-30T02:17:08.764Z,16
2022-11-30T02:18:08.747Z,16
2022-11-30T02:19:08.739Z,16
2022-11-30T02:20:08.728Z,16
2022-11-30T02:21:08.725Z,16
2022-11-30T02:22:08.711Z,20
2022-11-30T02:23:08.698Z,16
2022-11-30T02:24:08.685Z,16
2022-11-30T02:25:08.679Z,16
2022-11-30T02:26:08.669Z,16
2022-11-30T02:27:08.658Z,16
2022-11-30T02:28:08.653Z,16
2022-11-30T02:29:08.634Z,16
2022-11-30T02:30:08.632Z,16
2022-11-30T02:31:08.615Z,16
2022-11-30T02:32:08.600Z,16
2022-11-30T02:33:08.589Z,16
2022-11-30T02:34:08.584Z,16
2022-11-30T02:35:08.572Z,16
2022-11-30T02:36:08.566Z,16
2022-11-30T02:37:08.558Z,16
2022-11-30T02:38:08.541Z,16
2022-11-30T02:39:08.529Z,16
2022-11-30T02:40:08.525Z,16
2022-11-30T02:41:08.510Z,16
2022-11-30T02:42:08.497Z,16
2022-11-30T02:43:08.487Z,16
2022-11-30T02:44:08.477Z,16
2022-11-30T02:45:08.500Z,16
2022-11-30T02:46:08.471Z,16
2022-11-30T02:47:08.469Z,16
2022-11-30T02:48:08.439Z,16
2022-11-30T02:49:08.426Z,16
2022-11-30T02:50:08.424Z,16
2022-11-30T02:51:08.400Z,16
2022-11-30T02:52:08.399Z,16
2022-11-30T02:53:08.385Z,16
2022-11-30T02:54:08.371Z,16
2022-11-30T02:55:08.361Z,16
2022-11-30T02:56:08.346Z,16
2022-11-30T02:57:08.337Z,16
2022-11-30T02:58:08.339Z,16
2022-11-30T02:59:08.317Z,16
2022-11-30T03:00:08.310Z,16
2022-11-30T03:01:08.309Z,16
2022-11-30T03:02:08.299Z,16
2022-11-30T03:03:08.276Z,16
2022-11-30T03:04:08.270Z,16
2022-11-30T03:05:08.252Z,16
2022-11-30T03:06:08.245Z,16
2022-11-30T03:07:08.235Z,16
2022-11-30T03:08:08.231Z,16
2022-11-30T03:09:08.210Z,16
2022-11-30T03:10:08.199Z,16
2022-11-30T03:11:08.190Z,16
2022-11-30T03:12:08.191Z,16
2022-11-30T03:13:08.171Z,16
2022-11-30T03:14:08.159Z,16
2022-11-30T03:15:08.157Z,16
2022-11-30T03:16:08.136Z,16
2022-11-30T03:17:08.130Z,16
2022-11-30T03:18:08.115Z,16
2022-11-30T03:19:08.108Z,16
2022-11-30T03:20:08.095Z,16
2022-11-30T03:21:08.084Z,16
2022-11-30T03:22:08.074Z,16
2022-11-30T03:23:08.065Z,16
2022-11-30T03:24:08.052Z,16
2022-11-30T03:25:08.052Z,16
2022-11-30T03:26:08.039Z,16
2022-11-30T03:27:08.020Z,16
2022-11-30T03:28:08.014Z,16
2022-11-30T03:29:08.005Z,16
2022-11-30T03:30:07.991Z,16
2022-11-30T03:31:07.990Z,16
2022-11-30T03:32:07.995Z,16
2022-11-30T03:33:07.965Z,16
2022-11-30T03:34:07.947Z,16
2022-11-30T03:35:07.937Z,16
2022-11-30T03:36:07.938Z,16
2022-11-30T03:37:07.917Z,16
2022-11-30T03:38:07.906Z,16
2022-11-30T03:39:07.908Z,16
2022-11-30T03:40:07.887Z,16
2022-11-30T03:41:07.878Z,16
2022-11-30T03:42:07.868Z,16
2022-11-30T03:43:07.857Z,16
2022-11-30T03:44:07.843Z,20
2022-11-30T03:45:07.831Z,16
2022-11-30T03:46:07.823Z,16
2022-11-30T03:47:07.823Z,16
2022-11-30T03:48:07.818Z,16
2022-11-30T03:49:07.787Z,16
2022-11-30T03:50:07.782Z,16
2022-11-30T03:51:07.772Z,20
2022-11-30T03:52:07.757Z,20
2022-11-30T03:53:07.751Z,20
2022-11-30T03:54:07.745Z,20
2022-11-30T03:55:07.733Z,16
2022-11-30T03:56:07.715Z,20
2022-11-30T03:57:07.725Z,20
2022-11-30T03:58:07.698Z,20
2022-11-30T03:59:07.683Z,20
2022-11-30T04:00:07.674Z,20
2022-11-30T04:01:07.666Z,20
2022-11-30T04:02:07.654Z,20
2022-11-30T04:03:07.639Z,20
2022-11-30T04:04:07.637Z,20
2022-11-30T04:05:07.622Z,20
2022-11-30T04:06:07.612Z,20
2022-11-30T04:07:07.602Z,20
2022-11-30T04:08:07.597Z,20
2022-11-30T04:09:07.581Z,20
2022-11-30T04:10:07.567Z,20
2022-11-30T04:11:07.564Z,20
2022-11-30T04:12:07.550Z,20
2022-11-30T04:13:07.534Z,20
2022-11-30T04:14:07.534Z,20
2022-11-30T04:15:07.520Z,20
2022-11-30T04:16:07.515Z,20
2022-11-30T04:17:07.494Z,20
2022-11-30T04:18:07.483Z,20
2022-11-30T04:19:07.473Z,20
2022-11-30T04:20:07.470Z,20
2022-11-30T04:21:07.456Z,20
2022-11-30T04:22:07.444Z,20
2022-11-30T04:23:07.441Z,20
2022-11-30T04:24:07.426Z,20
2022-11-30T04:25:07.412Z,20
2022-11-30T04:26:07.406Z,20
2022-11-30T04:27:07.389Z,20
2022-11-30T04:28:07.380Z,20
2022-11-30T04:29:07.383Z,20
2022-11-30T04:30:07.359Z,20
2022-11-30T04:31:07.349Z,20
2022-11-30T04:32:07.339Z,20
2022-11-30T04:33:07.326Z,20
2022-11-30T04:34:07.313Z,20
2022-11-30T04:35:07.307Z,20
2022-11-30T04:36:07.294Z,20
2022-11-30T04:37:07.290Z,20
2022-11-30T04:38:07.277Z,24
2022-11-30T04:39:07.269Z,20
2022-11-30T04:40:07.250Z,20
2022-11-30T04:41:07.240Z,20
2022-11-30T04:42:07.232Z,20
2022-11-30T04:43:07.227Z,20
2022-11-30T04:44:07.212Z,20
2022-11-30T04:45:07.203Z,20
2022-11-30T04:46:07.193Z,20
2022-11-30T04:47:07.184Z,20
2022-11-30T04:48:07.179Z,20
2022-11-30T04:49:07.160Z,20
2022-11-30T04:50:07.152Z,20
2022-11-30T04:51:07.135Z,20
2022-11-30T04:52:07.132Z,24
2022-11-30T04:53:07.119Z,20
2022-11-30T04:54:07.103Z,20
2022-11-30T04:55:07.100Z,20
2022-11-30T04:56:07.088Z,20
2022-11-30T04:57:07.074Z,20
2022-11-30T04:58:07.066Z,20
2022-11-30T04:59:07.053Z,20
2022-11-30T05:00:07.045Z,20
2022-11-30T05:01:07.036Z,20
2022-11-30T05:02:07.023Z,20
2022-11-30T05:03:07.018Z,20
2022-11-30T05:04:07.016Z,20
2022-11-30T05:05:07.036Z,20
2022-11-30T05:06:06.984Z,20
2022-11-30T05:07:06.971Z,20
2022-11-30T05:08:06.964Z,20
2022-11-30T05:09:06.951Z,20
2022-11-30T05:10:06.942Z,20
2022-11-30T05:11:06.931Z,20
2022-11-30T05:12:06.926Z,20
2022-11-30T05:13:06.923Z,20
2022-11-30T05:14:06.894Z,20
2022-11-30T05:15:06.888Z,20
2022-11-30T05:16:06.875Z,20
2022-11-30T05:17:06.868Z,20
2022-11-30T05:18:06.856Z,20
2022-11-30T05:19:06.847Z,20
2022-11-30T05:20:06.835Z,20
2022-11-30T05:21:06.833Z,20
2022-11-30T05:22:06.820Z,20
2022-11-30T05:23:06.801Z,20
2022-11-30T05:24:06.796Z,20
2022-11-30T05:25:06.779Z,20
2022-11-30T05:26:06.771Z,20
2022-11-30T05:27:06.766Z,20
2022-11-30T05:28:06.767Z,20
2022-11-30T05:29:06.743Z,20
2022-11-30T05:30:06.739Z,20
2022-11-30T05:31:06.721Z,20
2022-11-30T05:32:06.705Z,20
2022-11-30T05:33:06.695Z,20
2022-11-30T05:34:06.690Z,20
2022-11-30T05:35:06.680Z,20
2022-11-30T05:36:06.662Z,20
2022-11-30T05:37:06.653Z,20
2022-11-30T05:38:06.642Z,20
2022-11-30T05:39:06.631Z,24
2022-11-30T05:40:06.627Z,20
2022-11-30T05:41:06.660Z,20
2022-11-30T05:42:06.630Z,20
2022-11-30T05:43:06.624Z,20
2022-11-30T05:44:06.600Z,20
2022-11-30T05:45:06.573Z,20
2022-11-30T05:46:06.561Z,20
2022-11-30T05:47:06.553Z,20
2022-11-30T05:48:06.552Z,20
2022-11-30T05:49:06.527Z,20
2022-11-30T05:50:06.519Z,20
2022-11-30T05:51:06.518Z,20
2022-11-30T05:52:06.495Z,20
2022-11-30T05:53:06.491Z,20
2022-11-30T05:54:06.481Z,20
2022-11-30T05:55:06.467Z,20
2022-11-30T05:56:06.452Z,20
2022-11-30T05:57:06.444Z,20
2022-11-30T05:58:06.434Z,20
2022-11-30T05:59:06.424Z,20
2022-11-30T06:00:06.413Z,20
2022-11-30T06:01:06.400Z,20
2022-11-30T06:02:06.388Z,20
2022-11-30T06:03:06.381Z,20
2022-11-30T06:04:06.366Z,20
2022-11-30T06:05:06.364Z,20
2022-11-30T06:06:06.352Z,20
2022-11-30T06:07:06.338Z,20
2022-11-30T06:08:06.336Z,20
2022-11-30T06:09:06.331Z,20
2022-11-30T06:10:06.306Z,20
2022-11-30T06:11:06.297Z,20
2022-11-30T06:12:06.287Z,20
2022-11-30T06:13:06.273Z,20
2022-11-30T06:14:06.261Z,20
2022-11-30T06:15:06.252Z,24
2022-11-30T06:16:06.242Z,24
2022-11-30T06:17:06.230Z,24
2022-11-30T06:18:06.226Z,20
2022-11-30T06:19:06.211Z,20
2022-11-30T06:20:06.224Z,20
2022-11-30T06:21:06.187Z,20
2022-11-30T06:22:06.181Z,24
2022-11-30T06:23:06.171Z,20
2022-11-30T06:24:06.160Z,20
2022-11-30T06:25:06.150Z,20
2022-11-30T06:26:06.144Z,20
2022-11-30T06:27:06.128Z,20
2022-11-30T06:28:06.145Z,20
2022-11-30T06:29:06.118Z,20
2022-11-30T06:30:06.091Z,20
2022-11-30T06:31:06.082Z,20
2022-11-30T06:32:06.075Z,20
2022-11-30T06:33:06.068Z,20
2022-11-30T06:34:06.054Z,20
2022-11-30T06:35:06.046Z,20
2022-11-30T06:36:06.034Z,20
2022-11-30T06:37:06.017Z,20
2022-11-30T06:38:06.011Z,20
2022-11-30T06:39:05.998Z,20
2022-11-30T06:40:05.994Z,20
2022-11-30T06:41:05.978Z,24
2022-11-30T06:42:05.983Z,24
2022-11-30T06:43:05.960Z,24
2022-11-30T06:44:05.942Z,24
2022-11-30T06:45:05.937Z,24
2022-11-30T06:46:05.926Z,24
2022-11-30T06:47:05.914Z,24
2022-11-30T06:48:05.907Z,24
2022-11-30T06:49:05.910Z,24
2022-11-30T06:50:05.885Z,28
2022-11-30T06:51:05.882Z,28
2022-11-30T06:52:05.859Z,24
2022-11-30T06:53:05.853Z,28
2022-11-30T06:54:05.841Z,28
2022-11-30T06:55:06.050Z,20
2022-11-30T06:56:05.817Z,20
2022-11-30T06:57:05.807Z,20
2022-11-30T06:58:05.800Z,20
2022-11-30T06:59:05.782Z,24
2022-11-30T07:00:05.780Z,24
2022-11-30T07:01:05.763Z,24
2022-11-30T07:02:05.752Z,24
2022-11-30T07:03:05.749Z,28
2022-11-30T07:04:05.742Z,24
2022-11-30T07:05:05.720Z,28
2022-11-30T07:06:05.711Z,28
2022-11-30T07:07:05.705Z,32
2022-11-30T07:08:05.711Z,32
2022-11-30T07:09:05.680Z,36
2022-11-30T07:10:05.691Z,28
2022-11-30T07:11:05.661Z,28
2022-11-30T07:12:05.656Z,32
2022-11-30T07:13:05.718Z,32
2022-11-30T07:14:05.630Z,36
2022-11-30T07:15:05.701Z,36
2022-11-30T07:16:05.603Z,36
2022-11-30T07:17:05.596Z,36
2022-11-30T07:18:05.601Z,40
2022-11-30T07:19:05.594Z,36
2022-11-30T07:20:05.564Z,36
2022-11-30T07:21:05.579Z,40
2022-11-30T07:22:05.543Z,44
2022-11-30T07:23:05.547Z,48
2022-11-30T07:24:05.518Z,52
2022-11-30T07:25:05.556Z,56
2022-11-30T07:26:05.500Z,68
2022-11-30T07:27:05.510Z,76
2022-11-30T07:28:05.481Z,80
2022-11-30T07:29:05.473Z,80
2022-11-30T07:30:05.457Z,80
2022-11-30T07:31:05.443Z,80
2022-11-30T07:32:05.439Z,84
2022-11-30T07:33:05.441Z,84
2022-11-30T07:34:05.417Z,88
2022-11-30T07:35:05.411Z,92
2022-11-30T07:36:05.394Z,96
2022-11-30T07:37:05.384Z,100
2022-11-30T07:38:05.379Z,96
2022-11-30T07:39:05.365Z,96
2022-11-30T07:40:05.354Z,96
2022-11-30T07:41:05.342Z,96
2022-11-30T07:42:05.348Z,100
2022-11-30T07:43:05.324Z,108
2022-11-30T07:44:05.308Z,112
2022-11-30T07:45:05.304Z,112
2022-11-30T07:46:05.303Z,112
2022-11-30T07:47:05.296Z,112
2022-11-30T07:48:05.270Z,112
2022-11-30T07:49:05.257Z,116
2022-11-30T07:50:05.243Z,124
2022-11-30T07:51:05.235Z,124
2022-11-30T07:52:05.223Z,128
2022-11-30T07:53:05.232Z,136
2022-11-30T07:54:05.206Z,132
2022-11-30T07:55:05.191Z,132
2022-11-30T07:56:05.189Z,128
2022-11-30T07:57:05.188Z,128
2022-11-30T07:58:05.162Z,132
2022-11-30T07:59:05.154Z,132
2022-11-30T08:00:05.146Z,132
2022-11-30T08:01:05.132Z,144
2022-11-30T08:02:05.114Z,152
2022-11-30T08:03:05.108Z,156
2022-11-30T08:04:05.098Z,164
2022-11-30T08:05:05.090Z,180
2022-11-30T08:06:05.085Z,192
2022-11-30T08:07:05.063Z,192
2022-11-30T08:08:05.066Z,184
2022-11-30T08:09:05.041Z,188
2022-11-30T08:10:05.032Z,192
2022-11-30T08:11:05.033Z,196
2022-11-30T08:12:05.020Z,196
2022-11-30T08:13:05.012Z,196
2022-11-30T08:14:04.991Z,204
2022-11-30T08:15:04.986Z,220
2022-11-30T08:16:04.977Z,232
2022-11-30T08:17:04.958Z,240
2022-11-30T08:18:04.952Z,252
2022-11-30T08:19:04.949Z,272
2022-11-30T08:20:04.930Z,300
2022-11-30T08:21:04.919Z,308
2022-11-30T08:22:04.903Z,316
2022-11-30T08:23:04.892Z,312
2022-11-30T08:24:04.898Z,324
2022-11-30T08:25:04.876Z,328
2022-11-30T08:26:04.863Z,328
2022-11-30T08:27:04.849Z,320
2022-11-30T08:28:04.838Z,312
2022-11-30T08:29:04.830Z,308
2022-11-30T08:30:04.823Z,304
2022-11-30T08:31:04.817Z,308
2022-11-30T08:32:04.796Z,308
2022-11-30T08:33:04.790Z,304
2022-11-30T08:34:04.790Z,312
2022-11-30T08:35:04.768Z,320
2022-11-30T08:36:04.756Z,340
2022-11-30T08:37:04.748Z,352
2022-11-30T08:38:04.742Z,356
2022-11-30T08:39:04.723Z,372
2022-11-30T08:40:04.720Z,380
2022-11-30T08:41:04.704Z,404
2022-11-30T08:42:04.695Z,432
2022-11-30T08:43:04.681Z,444
2022-11-30T08:44:04.786Z,444
2022-11-30T08:45:04.667Z,460
2022-11-30T08:46:04.657Z,472
2022-11-30T08:47:04.653Z,484
2022-11-30T08:48:04.633Z,500
2022-11-30T08:49:04.619Z,516
2022-11-30T08:50:04.611Z,528
2022-11-30T08:51:04.601Z,540
2022-11-30T08:52:04.588Z,552
2022-11-30T08:53:04.617Z,560
2022-11-30T08:54:04.563Z,568
2022-11-30T08:55:04.558Z,576
2022-11-30T08:56:04.576Z,584
2022-11-30T08:57:04.541Z,604
2022-11-30T08:58:04.530Z,624
2022-11-30T08:59:12.157Z,644
2022-11-30T09:00:04.656Z,680
2022-11-30T09:01:05.491Z,696
2022-11-30T09:02:04.488Z,712
2022-11-30T09:03:04.471Z,752
2022-11-30T09:04:04.458Z,772
2022-11-30T09:05:04.507Z,796
2022-11-30T09:06:04.440Z,816
2022-11-30T09:07:04.428Z,836
2022-11-30T09:08:04.424Z,852
2022-11-30T09:09:04.421Z,860
2022-11-30T09:10:04.398Z,868
2022-11-30T09:11:04.388Z,876
2022-11-30T09:12:04.373Z,880
2022-11-30T09:13:04.380Z,896
2022-11-30T09:14:04.353Z,904
2022-11-30T09:15:04.355Z,900
2022-11-30T09:16:04.357Z,880
2022-11-30T09:17:04.321Z,864
2022-11-30T09:18:04.311Z,860
2022-11-30T09:19:04.337Z,884
2022-11-30T09:20:04.292Z,920
2022-11-30T09:21:04.278Z,920
2022-11-30T09:22:04.276Z,916
2022-11-30T09:23:04.260Z,904
2022-11-30T09:24:04.252Z,900
2022-11-30T09:25:04.238Z,908
2022-11-30T09:26:04.227Z,940
2022-11-30T09:27:04.240Z,924
2022-11-30T09:28:04.208Z,908
2022-11-30T09:29:04.194Z,928
2022-11-30T09:30:04.207Z,964
2022-11-30T09:31:04.173Z,984
2022-11-30T09:32:04.167Z,1016
2022-11-30T09:33:04.150Z,996
2022-11-30T09:34:04.187Z,980
2022-11-30T09:35:04.136Z,952
2022-11-30T09:36:04.129Z,928
2022-11-30T09:37:04.121Z,928
2022-11-30T09:38:04.106Z,928
2022-11-30T09:39:04.104Z,920
2022-11-30T09:40:04.078Z,936
2022-11-30T09:41:04.073Z,960
2022-11-30T09:42:04.055Z,996
2022-11-30T09:43:04.048Z,1060
2022-11-30T09:44:04.056Z,1144
2022-11-30T09:45:04.025Z,1164
2022-11-30T09:46:04.015Z,1120
2022-11-30T09:47:04.031Z,1116
2022-11-30T09:48:03.990Z,1040
2022-11-30T09:49:03.983Z,1052
2022-11-30T09:50:03.995Z,1040
2022-11-30T09:51:03.967Z,1020
2022-11-30T09:52:04.050Z,1020
2022-11-30T09:53:03.939Z,1048
2022-11-30T09:54:03.954Z,1064
2022-11-30T09:55:03.930Z,1084
2022-11-30T09:56:03.910Z,1124
2022-11-30T09:57:03.896Z,1172
2022-11-30T09:58:03.963Z,1192
2022-11-30T09:59:03.908Z,1216
2022-11-30T10:00:04.019Z,1220
2022-11-30T10:01:03.899Z,1224
2022-11-30T10:02:03.847Z,1220
2022-11-30T10:03:03.842Z,1200
2022-11-30T10:04:03.825Z,1196
2022-11-30T10:05:03.816Z,1168
2022-11-30T10:06:03.805Z,1168
2022-11-30T10:07:03.795Z,1204
2022-11-30T10:08:03.782Z,1164
2022-11-30T10:09:03.787Z,1152
2022-11-30T10:10:03.767Z,1148
2022-11-30T10:11:03.776Z,1120
2022-11-30T10:12:03.741Z,1120
2022-11-30T10:13:03.736Z,1108
2022-11-30T10:14:03.718Z,1080
2022-11-30T10:15:03.712Z,1044
2022-11-30T10:16:03.699Z,1008
2022-11-30T10:17:03.691Z,988
2022-11-30T10:18:03.688Z,956
2022-11-30T10:19:03.663Z,948
2022-11-30T10:20:03.663Z,932
2022-11-30T10:21:03.655Z,928
2022-11-30T10:22:03.635Z,912
2022-11-30T10:23:03.625Z,928
2022-11-30T10:24:03.620Z,940
2022-11-30T10:25:03.599Z,956
2022-11-30T10:26:03.589Z,968
2022-11-30T10:27:03.613Z,992
2022-11-30T10:28:03.575Z,1012
2022-11-30T10:29:03.559Z,1032
2022-11-30T10:30:03.552Z,1100
2022-11-30T10:31:03.540Z,1140
2022-11-30T10:32:03.531Z,1196
2022-11-30T10:33:03.534Z,1244
2022-11-30T10:34:03.515Z,1280
2022-11-30T10:35:03.609Z,1288
2022-11-30T10:36:03.489Z,1324
2022-11-30T10:37:03.493Z,1348
2022-11-30T10:38:03.476Z,1364
2022-11-30T10:39:03.452Z,1396
2022-11-30T10:40:03.504Z,1388
2022-11-30T10:41:03.441Z,1372
2022-11-30T10:42:03.423Z,1372
2022-11-30T10:43:03.411Z,1408
2022-11-30T10:44:03.399Z,1404
2022-11-30T10:45:03.391Z,1420
2022-11-30T10:46:03.397Z,1428
2022-11-30T10:47:03.377Z,1460
2022-11-30T10:48:03.356Z,1412
2022-11-30T10:49:03.348Z,1392
2022-11-30T10:50:03.338Z,1388
2022-11-30T10:51:03.334Z,1416
2022-11-30T10:52:03.317Z,1408
2022-11-30T10:53:03.306Z,1380
2022-11-30T10:54:03.295Z,1392
2022-11-30T10:55:03.283Z,1420
2022-11-30T10:56:03.278Z,1464
2022-11-30T10:57:03.266Z,1440
2022-11-30T10:58:03.272Z,1456
2022-11-30T10:59:03.246Z,1584
2022-11-30T11:00:03.232Z,1476
2022-11-30T11:01:03.221Z,1480
2022-11-30T11:02:03.221Z,1444
2022-11-30T11:03:03.199Z,1428
2022-11-30T11:04:03.189Z,1388
2022-11-30T11:05:03.249Z,1380
2022-11-30T11:06:03.166Z,1392
2022-11-30T11:07:03.158Z,1404
2022-11-30T11:08:03.171Z,1424
2022-11-30T11:09:03.136Z,1448
2022-11-30T11:10:03.127Z,1476
2022-11-30T11:11:03.119Z,1472
2022-11-30T11:12:03.104Z,1472
2022-11-30T11:13:03.092Z,1508
2022-11-30T11:14:03.087Z,1540
2022-11-30T11:15:03.080Z,1572
2022-11-30T11:16:03.063Z,1608
2022-11-30T11:17:03.055Z,1616
2022-11-30T11:18:03.045Z,1624
2022-11-30T11:19:03.038Z,1604
2022-11-30T11:20:03.055Z,1604
2022-11-30T11:21:03.011Z,1576
2022-11-30T11:22:03.958Z,1548
2022-11-30T11:23:02.989Z,1552
2022-11-30T11:24:02.978Z,1464
2022-11-30T11:25:02.971Z,1432
2022-11-30T11:26:02.975Z,1424
2022-11-30T11:27:02.961Z,1400
2022-11-30T11:28:02.941Z,1400
2022-11-30T11:29:02.932Z,1368
2022-11-30T11:30:02.916Z,1364
2022-11-30T11:31:02.920Z,1356
2022-11-30T11:32:02.894Z,1360
2022-11-30T11:33:02.883Z,1348
2022-11-30T11:34:02.879Z,1328
2022-11-30T11:35:02.857Z,1296
2022-11-30T11:36:02.859Z,1280
2022-11-30T11:37:02.840Z,1236
2022-11-30T11:38:02.831Z,1200
2022-11-30T11:39:02.826Z,1184
2022-11-30T11:40:02.823Z,1144
2022-11-30T11:41:02.846Z,1132
2022-11-30T11:42:02.787Z,1104
2022-11-30T11:43:02.793Z,1092
2022-11-30T11:44:02.765Z,1068
2022-11-30T11:45:02.763Z,1048
2022-11-30T11:46:02.756Z,1040
2022-11-30T11:47:02.733Z,1048
2022-11-30T11:48:02.763Z,1052
2022-11-30T11:49:02.716Z,1024
2022-11-30T11:50:02.710Z,988
2022-11-30T11:51:02.704Z,944
2022-11-30T11:52:02.683Z,932
2022-11-30T11:53:02.672Z,892
2022-11-30T11:54:02.669Z,852
2022-11-30T11:55:02.657Z,828
2022-11-30T11:56:02.682Z,824
2022-11-30T11:57:02.667Z,840
2022-11-30T11:58:02.620Z,852
2022-11-30T11:59:02.613Z,856
2022-11-30T12:00:02.607Z,832
2022-11-30T12:01:02.596Z,796
2022-11-30T12:02:02.751Z,796
2022-11-30T12:03:02.574Z,768
2022-11-30T12:04:02.576Z,748
2022-11-30T12:05:02.549Z,728
2022-11-30T12:06:02.542Z,720
2022-11-30T12:07:02.527Z,720
2022-11-30T12:08:02.560Z,724
2022-11-30T12:09:02.580Z,716
2022-11-30T12:10:02.510Z,724
2022-11-30T12:11:02.491Z,716
2022-11-30T12:12:02.483Z,704
2022-11-30T12:13:02.467Z,704
2022-11-30T12:14:02.449Z,708
2022-11-30T12:15:02.448Z,740
2022-11-30T12:16:02.434Z,732
2022-11-30T12:17:02.424Z,716
2022-11-30T12:18:02.410Z,696
2022-11-30T12:19:02.407Z,696
2022-11-30T12:20:02.394Z,716
2022-11-30T12:21:02.382Z,724
2022-11-30T12:22:02.374Z,700
2022-11-30T12:23:02.356Z,668
2022-11-30T12:24:02.351Z,664
2022-11-30T12:25:02.339Z,660
2022-11-30T12:26:02.336Z,660
2022-11-30T12:27:02.321Z,660
2022-11-30T12:28:02.302Z,664
2022-11-30T12:29:02.292Z,656
2022-11-30T12:30:02.285Z,648
2022-11-30T12:31:02.279Z,660
2022-11-30T12:32:02.298Z,652
2022-11-30T12:33:02.258Z,656
2022-11-30T12:34:02.247Z,680
2022-11-30T12:35:02.231Z,712
2022-11-30T12:36:02.256Z,720
2022-11-30T12:37:02.206Z,728
2022-11-30T12:38:02.202Z,748
2022-11-30T12:39:02.200Z,768
2022-11-30T12:40:02.176Z,800
2022-11-30T12:41:02.170Z,804
2022-11-30T12:42:02.161Z,796
2022-11-30T12:43:02.156Z,796
2022-11-30T12:44:02.133Z,792
2022-11-30T12:45:02.122Z,796
2022-11-30T12:46:02.117Z,796
2022-11-30T12:47:02.104Z,792
2022-11-30T12:48:02.097Z,788
2022-11-30T12:49:02.093Z,780
2022-11-30T12:50:02.089Z,772
2022-11-30T12:51:02.063Z,780
2022-11-30T12:52:02.049Z,764
2022-11-30T12:53:02.132Z,740
2022-11-30T12:54:02.962Z,712
2022-11-30T12:55:02.016Z,708
2022-11-30T12:56:02.021Z,700
2022-11-30T12:57:02.001Z,692
2022-11-30T12:58:01.996Z,672
2022-11-30T12:59:01.975Z,664
2022-11-30T13:00:01.967Z,672
2022-11-30T13:01:01.956Z,680
2022-11-30T13:02:01.959Z,704
2022-11-30T13:03:01.937Z,704
2022-11-30T13:04:01.934Z,700
2022-11-30T13:05:01.926Z,688
2022-11-30T13:06:01.900Z,636
2022-11-30T13:07:01.889Z,600
2022-11-30T13:08:01.893Z,564
2022-11-30T13:09:01.884Z,556
2022-11-30T13:10:01.856Z,556
2022-11-30T13:11:01.855Z,540
2022-11-30T13:12:01.874Z,528
2022-11-30T13:13:01.831Z,504
2022-11-30T13:14:01.870Z,488
2022-11-30T13:15:01.806Z,500
2022-11-30T13:16:01.794Z,508
2022-11-30T13:17:01.806Z,512
2022-11-30T13:18:01.776Z,524
2022-11-30T13:19:01.764Z,536
2022-11-30T13:20:01.771Z,548
2022-11-30T13:21:01.742Z,556
2022-11-30T13:22:01.735Z,556
2022-11-30T13:23:01.754Z,548
2022-11-30T13:24:01.881Z,528
2022-11-30T13:25:01.709Z,504
2022-11-30T13:26:01.748Z,516
2022-11-30T13:27:01.697Z,520
2022-11-30T13:28:01.673Z,500
2022-11-30T13:29:01.673Z,484
2022-11-30T13:30:01.648Z,472
2022-11-30T13:31:01.638Z,428
2022-11-30T13:32:01.635Z,408
2022-11-30T13:33:01.620Z,408
2022-11-30T13:34:01.615Z,396
2022-11-30T13:35:01.615Z,380
2022-11-30T13:36:01.586Z,360
2022-11-30T13:37:01.574Z,344
2022-11-30T13:38:01.561Z,336
2022-11-30T13:39:01.604Z,324
2022-11-30T13:40:01.643Z,328
2022-11-30T13:41:01.542Z,344
2022-11-30T13:42:01.531Z,352
2022-11-30T13:43:01.515Z,352
2022-11-30T13:44:01.522Z,356
2022-11-30T13:45:01.522Z,356
2022-11-30T13:46:01.478Z,356
2022-11-30T13:47:01.479Z,348
2022-11-30T13:48:01.466Z,348
2022-11-30T13:49:01.455Z,332
2022-11-30T13:50:01.444Z,312
2022-11-30T13:51:01.434Z,316
2022-11-30T13:52:01.463Z,312
2022-11-30T13:53:01.408Z,300
2022-11-30T13:54:01.443Z,280
2022-11-30T13:55:01.384Z,280
2022-11-30T13:56:01.375Z,260
2022-11-30T13:57:01.362Z,244